Terminal Aerodrome Forecast
Issued by NWS Raleigh/Durham, NC

Home | Current Version | Previous Version | Text Only | Print | Product List | Glossary On
Versions: 1 2 3 4 5 6 7 8 9 10 11 12 13 14
000
FTUS42 KRAH 191720
TAFGSO
TAF
KGSO 191720Z 1918/2018 31015G27KT P6SM FEW040
     FM192300 33012KT P6SM SKC
     FM200500 34006KT P6SM SKC
     FM201500 34008G18KT P6SM SKC=

USA.gov is the U.S. government's official web portal to all federal, state and local government web resources and services.